This is the latest recevied weather packets stored in our database for station/object OH2HCY. If no packets are shown the sender has not sent any weather packets the latest 10 day(s).
| Time | Temp. | Humidity | Pressure | Rain* | Wind** | Luminosity | Snow |
|---|---|---|---|---|---|---|---|
| 1777877327 | 12.78° C | 44% | 999.7 hPa | - | - | - | - |
| 1777876788 | 12.78° C | 44% | 999.9 hPa | - | - | - | - |
| 1777876220 | 12.22° C | 46% | 1000.1 hPa | - | - | - | - |
| 1777875720 | 11.67° C | 46% | 1000.2 hPa | - | - | - | - |
| 1777875165 | 12.22° C | 44% | 1000.3 hPa | - | - | - | - |
| 1777874655 | 12.78° C | 43% | 1000.5 hPa | - | - | - | - |
| 1777874115 | 12.22° C | 44% | 1000.8 hPa | - | - | - | - |
| 1777873570 | 11.67° C | 45% | 1001.1 hPa | - | - | - | - |
| 1777872490 | 11.67° C | 44% | 1001.1 hPa | - | - | - | - |
| 1777871965 | 11.67° C | 44% | 1001.2 hPa | - | - | - | - |
| 1777871440 | 11.67° C | 44% | 1001.4 hPa | - | - | - | - |
| 1777870890 | 11.11° C | 45% | 1001.7 hPa | - | - | - | - |
| 1777870350 | 10.56° C | 46% | 1002 hPa | - | - | - | - |
| 1777869805 | 10° C | 46% | 1002.2 hPa | - | - | - | - |
| 1777869229 | 10° C | 48% | 1002.5 hPa | - | - | - | - |
| 1777868660 | 9.44° C | 48% | 1002.8 hPa | - | - | - | - |
| 1777868090 | 8.89° C | 49% | 1003.1 hPa | - | - | - | - |
| 1777867565 | 8.89° C | 48% | 1003.2 hPa | - | - | - | - |
| 1777867030 | 8.89° C | 52% | 1003.4 hPa | - | - | - | - |
| 1777866505 | 8.33° C | 52% | 1003.5 hPa | - | - | - | - |
| 1777865480 | 8.33° C | 53% | 1003.6 hPa | - | - | - | - |
| 1777847168 | 11.67° C | 61% | 1003.5 hPa | - | - | - | - |
| 1777845552 | 11.67° C | 63% | 1003.5 hPa | - | - | - | - |
| 1777844490 | 12.22° C | 66% | 1003.3 hPa | - | - | - | - |
| 1777843925 | 12.22° C | 70% | 1003.4 hPa | - | - | - | - |
* Rain since midnight (hover to see other rain measurements)
** Current wind speed in m/s (hover to see current wind gust speed)